Terminal Aerodrome Forecast
Issued by NWS Louisville, KY

Home | Current Version | Previous Version | Text Only | Print | Product List | Glossary On
Versions: 1 2 3 4 5 6 7 8 9 10 11 12 13 14
103
FTUS43 KLMK 030520
TAFBWG
TAF
KBWG 030520Z 0306/0406 VRB03KT P6SM SCT025 BKN035
      TEMPO 0309/0313 4SM BR BKN015
     FM031500 31005KT P6SM BKN025
     FM031800 30008KT P6SM BKN035
     FM040200 VRB03KT P6SM BKN100=

USA.gov is the U.S. government's official web portal to all federal, state and local government web resources and services.